sensor_id;sensor_type;location;lat;lon;timestamp;temperature;humidity
62555;DHT22;48610;52.144;8.624;2023-07-20T00:02:12;17.40;99.90
62555;DHT22;48610;52.144;8.624;2023-07-20T00:05:13;17.40;99.90
62555;DHT22;48610;52.144;8.624;2023-07-20T00:08:13;17.30;99.90
62555;DHT22;48610;52.144;8.624;2023-07-20T00:11:14;17.40;99.90
62555;DHT22;48610;52.144;8.624;2023-07-20T00:14:15;17.30;99.90
62555;DHT22;48610;52.144;8.624;2023-07-20T00:17:15;17.30;99.90
62555;DHT22;48610;52.144;8.624;2023-07-20T00:20:16;17.40;99.90
62555;DHT22;48610;52.144;8.624;2023-07-20T00:23:17;17.50;99.90
62555;DHT22;48610;52.144;8.624;2023-07-20T00:26:17;17.40;99.90
62555;DHT22;48610;52.144;8.624;2023-07-20T00:29:18;17.30;99.90
62555;DHT22;48610;52.144;8.624;2023-07-20T00:32:18;17.20;99.90
62555;DHT22;48610;52.144;8.624;2023-07-20T00:35:19;17.30;99.90
62555;DHT22;48610;52.144;8.624;2023-07-20T00:38:20;17.30;99.90
62555;DHT22;48610;52.144;8.624;2023-07-20T00:41:21;17.30;99.90
62555;DHT22;48610;52.144;8.624;2023-07-20T00:44:21;17.30;99.90
62555;DHT22;48610;52.144;8.624;2023-07-20T00:47:22;17.30;99.90
62555;DHT22;48610;52.144;8.624;2023-07-20T00:50:24;17.30;99.90
62555;DHT22;48610;52.144;8.624;2023-07-20T00:53:26;17.30;99.90
62555;DHT22;48610;52.144;8.624;2023-07-20T00:56:27;17.30;99.90
62555;DHT22;48610;52.144;8.624;2023-07-20T00:59:28;17.30;99.90
62555;DHT22;48610;52.144;8.624;2023-07-20T01:02:29;17.40;99.90
62555;DHT22;48610;52.144;8.624;2023-07-20T01:05:39;17.30;99.90
62555;DHT22;48610;52.144;8.624;2023-07-20T01:08:57;17.30;99.90
62555;DHT22;48610;52.144;8.624;2023-07-20T01:12:40;17.30;99.90
62555;DHT22;48610;52.144;8.624;2023-07-20T01:15:41;17.30;99.90
62555;DHT22;48610;52.144;8.624;2023-07-20T01:18:42;17.30;99.90
62555;DHT22;48610;52.144;8.624;2023-07-20T01:31:56;17.30;99.90
62555;DHT22;48610;52.144;8.624;2023-07-20T01:34:58;17.20;99.90
62555;DHT22;48610;52.144;8.624;2023-07-20T01:38:00;17.00;99.90
62555;DHT22;48610;52.144;8.624;2023-07-20T01:41:02;17.10;99.90
62555;DHT22;48610;52.144;8.624;2023-07-20T01:44:04;17.20;99.90
62555;DHT22;48610;52.144;8.624;2023-07-20T01:47:05;17.10;99.90
62555;DHT22;48610;52.144;8.624;2023-07-20T01:50:06;17.00;99.90
62555;DHT22;48610;52.144;8.624;2023-07-20T01:53:08;17.00;99.90
62555;DHT22;48610;52.144;8.624;2023-07-20T01:56:08;17.00;99.90
62555;DHT22;48610;52.144;8.624;2023-07-20T01:59:09;17.00;99.90
62555;DHT22;48610;52.144;8.624;2023-07-20T02:02:10;17.00;99.90
62555;DHT22;48610;52.144;8.624;2023-07-20T02:05:10;17.10;99.90
62555;DHT22;48610;52.144;8.624;2023-07-20T02:08:11;17.10;99.90
62555;DHT22;48610;52.144;8.624;2023-07-20T02:11:11;17.10;99.90
62555;DHT22;48610;52.144;8.624;2023-07-20T02:14:12;17.00;99.90
62555;DHT22;48610;52.144;8.624;2023-07-20T02:17:13;17.10;99.90
62555;DHT22;48610;52.144;8.624;2023-07-20T02:20:13;17.10;99.90
62555;DHT22;48610;52.144;8.624;2023-07-20T02:23:14;17.20;99.90
62555;DHT22;48610;52.144;8.624;2023-07-20T02:26:15;17.30;99.90
62555;DHT22;48610;52.144;8.624;2023-07-20T02:33:12;17.10;99.90
62555;DHT22;48610;52.144;8.624;2023-07-20T02:36:13;17.00;99.90
62555;DHT22;48610;52.144;8.624;2023-07-20T02:39:13;16.90;99.90
62555;DHT22;48610;52.144;8.624;2023-07-20T02:42:14;17.00;99.90
62555;DHT22;48610;52.144;8.624;2023-07-20T02:45:15;17.10;99.90
62555;DHT22;48610;52.144;8.624;2023-07-20T02:48:15;16.90;99.90
62555;DHT22;48610;52.144;8.624;2023-07-20T02:51:16;16.60;99.90
62555;DHT22;48610;52.144;8.624;2023-07-20T02:54:16;16.50;99.90
62555;DHT22;48610;52.144;8.624;2023-07-20T02:57:17;16.30;99.90
62555;DHT22;48610;52.144;8.624;2023-07-20T03:00:17;16.20;99.90
62555;DHT22;48610;52.144;8.624;2023-07-20T03:03:20;16.10;99.90
62555;DHT22;48610;52.144;8.624;2023-07-20T03:06:20;16.20;99.90
62555;DHT22;48610;52.144;8.624;2023-07-20T03:09:21;16.10;99.90
62555;DHT22;48610;52.144;8.624;2023-07-20T03:12:22;16.10;99.90
62555;DHT22;48610;52.144;8.624;2023-07-20T03:15:23;16.00;99.90
62555;DHT22;48610;52.144;8.624;2023-07-20T03:18:23;16.10;99.90
62555;DHT22;48610;52.144;8.624;2023-07-20T03:21:24;16.10;99.90
62555;DHT22;48610;52.144;8.624;2023-07-20T03:24:25;16.20;99.90
62555;DHT22;48610;52.144;8.624;2023-07-20T03:27:25;16.10;99.90
62555;DHT22;48610;52.144;8.624;2023-07-20T03:30:26;16.20;99.90
62555;DHT22;48610;52.144;8.624;2023-07-20T03:33:28;16.10;99.90
62555;DHT22;48610;52.144;8.624;2023-07-20T03:36:29;16.10;99.90
62555;DHT22;48610;52.144;8.624;2023-07-20T03:39:29;16.00;99.90
62555;DHT22;48610;52.144;8.624;2023-07-20T03:42:30;15.80;99.90
62555;DHT22;48610;52.144;8.624;2023-07-20T03:45:31;15.70;99.90
62555;DHT22;48610;52.144;8.624;2023-07-20T03:48:31;15.70;99.90
62555;DHT22;48610;52.144;8.624;2023-07-20T03:51:32;15.60;99.90
62555;DHT22;48610;52.144;8.624;2023-07-20T03:54:33;15.50;99.90
62555;DHT22;48610;52.144;8.624;2023-07-20T03:57:33;15.50;99.90
62555;DHT22;48610;52.144;8.624;2023-07-20T04:00:34;15.40;99.90
62555;DHT22;48610;52.144;8.624;2023-07-20T04:03:35;15.40;99.90
62555;DHT22;48610;52.144;8.624;2023-07-20T04:06:37;15.30;99.90
62555;DHT22;48610;52.144;8.624;2023-07-20T04:09:37;15.30;99.90
62555;DHT22;48610;52.144;8.624;2023-07-20T04:12:38;15.30;99.90
62555;DHT22;48610;52.144;8.624;2023-07-20T04:15:39;15.40;99.90
62555;DHT22;48610;52.144;8.624;2023-07-20T04:18:39;15.30;99.90
62555;DHT22;48610;52.144;8.624;2023-07-20T04:21:41;15.50;99.90
62555;DHT22;48610;52.144;8.624;2023-07-20T04:24:42;15.60;99.90
62555;DHT22;48610;52.144;8.624;2023-07-20T04:27:43;15.60;99.90
62555;DHT22;48610;52.144;8.624;2023-07-20T04:30:44;15.60;99.90
62555;DHT22;48610;52.144;8.624;2023-07-20T04:33:44;15.70;99.90
62555;DHT22;48610;52.144;8.624;2023-07-20T04:36:45;15.70;99.90
62555;DHT22;48610;52.144;8.624;2023-07-20T04:39:46;15.90;99.90
62555;DHT22;48610;52.144;8.624;2023-07-20T04:42:46;15.80;99.90
62555;DHT22;48610;52.144;8.624;2023-07-20T04:45:47;15.70;99.90
62555;DHT22;48610;52.144;8.624;2023-07-20T04:48:48;15.60;99.90
62555;DHT22;48610;52.144;8.624;2023-07-20T04:51:48;15.50;99.90
62555;DHT22;48610;52.144;8.624;2023-07-20T04:54:49;15.50;99.90
62555;DHT22;48610;52.144;8.624;2023-07-20T04:57:49;15.60;99.90
62555;DHT22;48610;52.144;8.624;2023-07-20T05:00:50;15.70;99.90
62555;DHT22;48610;52.144;8.624;2023-07-20T05:03:51;15.70;99.90
62555;DHT22;48610;52.144;8.624;2023-07-20T05:06:52;15.70;99.90
62555;DHT22;48610;52.144;8.624;2023-07-20T05:09:52;15.60;99.90
62555;DHT22;48610;52.144;8.624;2023-07-20T05:12:53;15.70;99.90
62555;DHT22;48610;52.144;8.624;2023-07-20T05:15:53;15.80;99.90
62555;DHT22;48610;52.144;8.624;2023-07-20T05:18:54;15.80;99.90
62555;DHT22;48610;52.144;8.624;2023-07-20T05:21:56;15.80;99.90
62555;DHT22;48610;52.144;8.624;2023-07-20T05:24:57;15.80;99.90
62555;DHT22;48610;52.144;8.624;2023-07-20T05:27:57;15.90;99.90
62555;DHT22;48610;52.144;8.624;2023-07-20T05:30:58;15.90;99.90
62555;DHT22;48610;52.144;8.624;2023-07-20T05:34:00;15.80;99.90
62555;DHT22;48610;52.144;8.624;2023-07-20T05:37:00;15.90;99.90
62555;DHT22;48610;52.144;8.624;2023-07-20T05:40:01;16.00;99.90
62555;DHT22;48610;52.144;8.624;2023-07-20T05:43:01;16.10;99.90
62555;DHT22;48610;52.144;8.624;2023-07-20T05:46:02;16.00;99.90
62555;DHT22;48610;52.144;8.624;2023-07-20T05:49:03;15.90;99.90
62555;DHT22;48610;52.144;8.624;2023-07-20T05:52:03;15.90;99.90
62555;DHT22;48610;52.144;8.624;2023-07-20T05:55:05;16.10;99.90
62555;DHT22;48610;52.144;8.624;2023-07-20T05:58:05;16.10;99.90
62555;DHT22;48610;52.144;8.624;2023-07-20T06:01:06;16.10;99.90
62555;DHT22;48610;52.144;8.624;2023-07-20T06:04:07;16.20;99.90
62555;DHT22;48610;52.144;8.624;2023-07-20T06:07:08;16.20;99.90
62555;DHT22;48610;52.144;8.624;2023-07-20T06:10:09;16.30;99.90
62555;DHT22;48610;52.144;8.624;2023-07-20T06:13:09;16.20;99.90
62555;DHT22;48610;52.144;8.624;2023-07-20T06:16:10;16.40;99.90
62555;DHT22;48610;52.144;8.624;2023-07-20T06:19:11;16.40;99.90
62555;DHT22;48610;52.144;8.624;2023-07-20T06:22:12;16.50;99.90
62555;DHT22;48610;52.144;8.624;2023-07-20T06:25:13;16.60;99.90
62555;DHT22;48610;52.144;8.624;2023-07-20T06:28:13;16.70;99.90
62555;DHT22;48610;52.144;8.624;2023-07-20T06:31:14;16.50;99.90
62555;DHT22;48610;52.144;8.624;2023-07-20T06:34:15;16.50;99.90
62555;DHT22;48610;52.144;8.624;2023-07-20T06:37:15;16.40;99.90
62555;DHT22;48610;52.144;8.624;2023-07-20T06:40:16;16.40;99.90
62555;DHT22;48610;52.144;8.624;2023-07-20T06:43:17;16.50;99.90
62555;DHT22;48610;52.144;8.624;2023-07-20T06:46:17;16.50;99.90
62555;DHT22;48610;52.144;8.624;2023-07-20T06:49:25;16.80;99.90
62555;DHT22;48610;52.144;8.624;2023-07-20T06:52:26;17.00;99.90
62555;DHT22;48610;52.144;8.624;2023-07-20T06:55:27;17.00;99.90
62555;DHT22;48610;52.144;8.624;2023-07-20T06:58:27;17.00;99.90
62555;DHT22;48610;52.144;8.624;2023-07-20T07:01:28;17.20;99.90
62555;DHT22;48610;52.144;8.624;2023-07-20T07:04:29;17.50;99.90
62555;DHT22;48610;52.144;8.624;2023-07-20T07:07:29;17.50;99.90
62555;DHT22;48610;52.144;8.624;2023-07-20T07:10:30;17.40;99.90
62555;DHT22;48610;52.144;8.624;2023-07-20T07:13:31;17.50;99.90
62555;DHT22;48610;52.144;8.624;2023-07-20T07:16:31;17.30;99.90
62555;DHT22;48610;52.144;8.624;2023-07-20T07:19:32;17.40;99.90
62555;DHT22;48610;52.144;8.624;2023-07-20T07:22:33;17.30;99.90
62555;DHT22;48610;52.144;8.624;2023-07-20T07:25:33;17.50;99.90
62555;DHT22;48610;52.144;8.624;2023-07-20T07:28:34;17.40;99.90
62555;DHT22;48610;52.144;8.624;2023-07-20T07:31:35;17.40;99.90
62555;DHT22;48610;52.144;8.624;2023-07-20T07:34:39;17.50;99.90
62555;DHT22;48610;52.144;8.624;2023-07-20T07:37:39;17.70;99.90
62555;DHT22;48610;52.144;8.624;2023-07-20T07:40:40;17.80;99.90
62555;DHT22;48610;52.144;8.624;2023-07-20T07:43:40;17.80;99.90
62555;DHT22;48610;52.144;8.624;2023-07-20T07:46:41;17.80;99.90
62555;DHT22;48610;52.144;8.624;2023-07-20T07:49:42;17.60;99.90
62555;DHT22;48610;52.144;8.624;2023-07-20T07:52:42;17.70;99.90
62555;DHT22;48610;52.144;8.624;2023-07-20T07:55:43;17.60;99.90
62555;DHT22;48610;52.144;8.624;2023-07-20T07:58:44;17.70;99.90
62555;DHT22;48610;52.144;8.624;2023-07-20T08:01:44;17.80;99.90
62555;DHT22;48610;52.144;8.624;2023-07-20T08:04:45;17.60;99.90
62555;DHT22;48610;52.144;8.624;2023-07-20T08:07:45;17.70;99.90
62555;DHT22;48610;52.144;8.624;2023-07-20T08:10:46;17.90;99.90
62555;DHT22;48610;52.144;8.624;2023-07-20T08:13:47;18.20;99.90
62555;DHT22;48610;52.144;8.624;2023-07-20T08:16:48;18.40;99.90
62555;DHT22;48610;52.144;8.624;2023-07-20T08:19:49;18.50;99.90
62555;DHT22;48610;52.144;8.624;2023-07-20T08:22:49;18.60;99.90
62555;DHT22;48610;52.144;8.624;2023-07-20T08:25:50;18.60;99.90
62555;DHT22;48610;52.144;8.624;2023-07-20T08:28:50;18.80;99.90
62555;DHT22;48610;52.144;8.624;2023-07-20T08:31:51;18.70;99.90
62555;DHT22;48610;52.144;8.624;2023-07-20T08:34:52;18.50;99.90
62555;DHT22;48610;52.144;8.624;2023-07-20T08:37:52;18.50;99.90
62555;DHT22;48610;52.144;8.624;2023-07-20T08:40:54;18.70;99.90
62555;DHT22;48610;52.144;8.624;2023-07-20T08:43:57;18.60;99.90
62555;DHT22;48610;52.144;8.624;2023-07-20T08:46:59;18.60;99.90
62555;DHT22;48610;52.144;8.624;2023-07-20T08:50:02;18.50;99.90
62555;DHT22;48610;52.144;8.624;2023-07-20T08:53:06;18.60;99.90
62555;DHT22;48610;52.144;8.624;2023-07-20T08:56:08;18.50;99.90
62555;DHT22;48610;52.144;8.624;2023-07-20T08:59:12;18.60;99.90
62555;DHT22;48610;52.144;8.624;2023-07-20T09:02:16;18.80;99.90
62555;DHT22;48610;52.144;8.624;2023-07-20T09:05:18;18.80;99.90
62555;DHT22;48610;52.144;8.624;2023-07-20T09:08:19;18.80;99.90
62555;DHT22;48610;52.144;8.624;2023-07-20T09:11:19;18.90;99.90
62555;DHT22;48610;52.144;8.624;2023-07-20T09:14:23;18.70;99.90
62555;DHT22;48610;52.144;8.624;2023-07-20T09:17:25;19.00;99.90
62555;DHT22;48610;52.144;8.624;2023-07-20T09:20:26;19.10;99.90
62555;DHT22;48610;52.144;8.624;2023-07-20T09:26:40;19.20;98.00
62555;DHT22;48610;52.144;8.624;2023-07-20T09:29:48;19.40;98.00
62555;DHT22;48610;52.144;8.624;2023-07-20T09:32:49;19.40;98.00
62555;DHT22;48610;52.144;8.624;2023-07-20T09:35:53;19.50;97.80
62555;DHT22;48610;52.144;8.624;2023-07-20T09:38:54;19.40;97.40
62555;DHT22;48610;52.144;8.624;2023-07-20T09:42:00;19.60;97.50
62555;DHT22;48610;52.144;8.624;2023-07-20T09:45:02;19.50;97.70
62555;DHT22;48610;52.144;8.624;2023-07-20T09:48:06;19.70;97.20
62555;DHT22;48610;52.144;8.624;2023-07-20T09:51:07;19.80;97.00
62555;DHT22;48610;52.144;8.624;2023-07-20T09:54:08;20.00;97.30
62555;DHT22;48610;52.144;8.624;2023-07-20T09:57:11;20.00;96.20
62555;DHT22;48610;52.144;8.624;2023-07-20T10:00:14;20.30;95.30
62555;DHT22;48610;52.144;8.624;2023-07-20T10:03:19;20.20;95.20
62555;DHT22;48610;52.144;8.624;2023-07-20T10:06:23;20.30;95.70
62555;DHT22;48610;52.144;8.624;2023-07-20T10:09:25;20.30;95.00
62555;DHT22;48610;52.144;8.624;2023-07-20T10:12:27;20.60;95.20
62555;DHT22;48610;52.144;8.624;2023-07-20T10:15:42;20.70;94.10
62555;DHT22;48610;52.144;8.624;2023-07-20T10:18:50;20.80;93.30
62555;DHT22;48610;52.144;8.624;2023-07-20T10:22:00;20.80;93.80
62555;DHT22;48610;52.144;8.624;2023-07-20T10:25:04;20.50;94.50
62555;DHT22;48610;52.144;8.624;2023-07-20T10:28:07;20.50;94.30
62555;DHT22;48610;52.144;8.624;2023-07-20T10:31:09;20.60;94.70
62555;DHT22;48610;52.144;8.624;2023-07-20T10:34:10;20.40;94.40
62555;DHT22;48610;52.144;8.624;2023-07-20T10:37:46;20.60;93.50
62555;DHT22;48610;52.144;8.624;2023-07-20T10:40:55;21.00;93.70
62555;DHT22;48610;52.144;8.624;2023-07-20T10:44:07;21.10;90.80
62555;DHT22;48610;52.144;8.624;2023-07-20T10:47:09;20.80;90.90
62555;DHT22;48610;52.144;8.624;2023-07-20T10:50:12;20.70;92.10
62555;DHT22;48610;52.144;8.624;2023-07-20T10:53:17;21.00;94.10
62555;DHT22;48610;52.144;8.624;2023-07-20T10:56:22;21.30;92.90
62555;DHT22;48610;52.144;8.624;2023-07-20T11:02:24;21.50;90.80
62555;DHT22;48610;52.144;8.624;2023-07-20T11:05:38;21.50;90.60
62555;DHT22;48610;52.144;8.624;2023-07-20T11:08:41;21.40;91.30
62555;DHT22;48610;52.144;8.624;2023-07-20T11:11:44;21.40;91.20
62555;DHT22;48610;52.144;8.624;2023-07-20T11:14:57;21.40;92.10
62555;DHT22;48610;52.144;8.624;2023-07-20T11:18:14;21.60;90.00
62555;DHT22;48610;52.144;8.624;2023-07-20T11:21:15;21.70;91.00
62555;DHT22;48610;52.144;8.624;2023-07-20T11:24:16;21.50;90.00
62555;DHT22;48610;52.144;8.624;2023-07-20T11:27:17;21.40;87.60
62555;DHT22;48610;52.144;8.624;2023-07-20T11:30:22;21.50;87.10
62555;DHT22;48610;52.144;8.624;2023-07-20T11:33:23;22.00;86.60
62555;DHT22;48610;52.144;8.624;2023-07-20T11:36:23;22.40;86.00
62555;DHT22;48610;52.144;8.624;2023-07-20T11:39:25;22.40;85.00
62555;DHT22;48610;52.144;8.624;2023-07-20T11:42:25;22.40;82.30
62555;DHT22;48610;52.144;8.624;2023-07-20T11:45:26;22.80;87.40
62555;DHT22;48610;52.144;8.624;2023-07-20T11:48:27;23.00;85.90
62555;DHT22;48610;52.144;8.624;2023-07-20T11:51:29;23.20;84.10
62555;DHT22;48610;52.144;8.624;2023-07-20T11:54:30;23.00;81.30
62555;DHT22;48610;52.144;8.624;2023-07-20T11:57:31;22.90;83.40
62555;DHT22;48610;52.144;8.624;2023-07-20T12:00:33;22.70;82.00
62555;DHT22;48610;52.144;8.624;2023-07-20T12:03:34;22.70;84.00
62555;DHT22;48610;52.144;8.624;2023-07-20T12:06:35;23.00;85.40
62555;DHT22;48610;52.144;8.624;2023-07-20T12:09:36;23.00;85.50
62555;DHT22;48610;52.144;8.624;2023-07-20T12:12:40;22.80;84.60
62555;DHT22;48610;52.144;8.624;2023-07-20T12:15:43;22.80;81.30
62555;DHT22;48610;52.144;8.624;2023-07-20T12:18:44;22.40;84.00
62555;DHT22;48610;52.144;8.624;2023-07-20T12:21:45;22.00;84.10
62555;DHT22;48610;52.144;8.624;2023-07-20T12:24:46;21.80;84.90
62555;DHT22;48610;52.144;8.624;2023-07-20T12:27:49;22.10;87.40
62555;DHT22;48610;52.144;8.624;2023-07-20T12:30:50;22.70;85.40
62555;DHT22;48610;52.144;8.624;2023-07-20T12:33:57;22.80;83.90
62555;DHT22;48610;52.144;8.624;2023-07-20T12:36:58;22.80;85.50
62555;DHT22;48610;52.144;8.624;2023-07-20T12:39:59;23.00;82.10
62555;DHT22;48610;52.144;8.624;2023-07-20T12:43:00;22.60;81.10
62555;DHT22;48610;52.144;8.624;2023-07-20T12:46:01;22.10;82.00
62555;DHT22;48610;52.144;8.624;2023-07-20T12:49:01;21.80;83.50
62555;DHT22;48610;52.144;8.624;2023-07-20T12:52:02;21.80;85.80
62555;DHT22;48610;52.144;8.624;2023-07-20T12:55:05;21.80;87.70
62555;DHT22;48610;52.144;8.624;2023-07-20T12:58:06;21.80;85.80
62555;DHT22;48610;52.144;8.624;2023-07-20T13:01:07;21.70;87.40
62555;DHT22;48610;52.144;8.624;2023-07-20T13:04:08;21.70;86.40
62555;DHT22;48610;52.144;8.624;2023-07-20T13:07:10;21.60;87.10
62555;DHT22;48610;52.144;8.624;2023-07-20T13:10:12;21.50;87.80
62555;DHT22;48610;52.144;8.624;2023-07-20T13:13:13;21.50;88.10
62555;DHT22;48610;52.144;8.624;2023-07-20T13:16:14;21.50;87.30
62555;DHT22;48610;52.144;8.624;2023-07-20T13:19:15;21.50;87.20
62555;DHT22;48610;52.144;8.624;2023-07-20T13:22:16;22.00;88.10
62555;DHT22;48610;52.144;8.624;2023-07-20T13:25:16;22.10;88.40
62555;DHT22;48610;52.144;8.624;2023-07-20T13:28:17;22.30;88.50
62555;DHT22;48610;52.144;8.624;2023-07-20T13:31:18;22.30;85.70
62555;DHT22;48610;52.144;8.624;2023-07-20T13:34:18;21.90;85.90
62555;DHT22;48610;52.144;8.624;2023-07-20T13:37:19;21.90;87.80
62555;DHT22;48610;52.144;8.624;2023-07-20T13:40:19;22.00;88.60
62555;DHT22;48610;52.144;8.624;2023-07-20T13:43:20;22.60;86.80
62555;DHT22;48610;52.144;8.624;2023-07-20T13:46:21;22.80;85.80
62555;DHT22;48610;52.144;8.624;2023-07-20T13:49:21;22.70;84.30
62555;DHT22;48610;52.144;8.624;2023-07-20T13:52:22;22.50;86.30
62555;DHT22;48610;52.144;8.624;2023-07-20T13:55:23;22.30;85.50
62555;DHT22;48610;52.144;8.624;2023-07-20T13:58:24;22.10;85.90
62555;DHT22;48610;52.144;8.624;2023-07-20T14:01:25;22.10;86.40
62555;DHT22;48610;52.144;8.624;2023-07-20T14:04:28;22.10;85.10
62555;DHT22;48610;52.144;8.624;2023-07-20T14:07:29;21.70;84.60
62555;DHT22;48610;52.144;8.624;2023-07-20T14:10:30;21.60;87.00
62555;DHT22;48610;52.144;8.624;2023-07-20T14:13:30;21.80;87.60
62555;DHT22;48610;52.144;8.624;2023-07-20T14:16:31;21.90;83.30
62555;DHT22;48610;52.144;8.624;2023-07-20T14:19:32;21.70;84.70
62555;DHT22;48610;52.144;8.624;2023-07-20T14:22:33;21.60;85.90
62555;DHT22;48610;52.144;8.624;2023-07-20T14:25:33;21.70;86.00
62555;DHT22;48610;52.144;8.624;2023-07-20T14:28:35;21.80;86.80
62555;DHT22;48610;52.144;8.624;2023-07-20T14:31:35;21.90;87.60
62555;DHT22;48610;52.144;8.624;2023-07-20T14:34:36;21.80;89.40
62555;DHT22;48610;52.144;8.624;2023-07-20T14:37:37;21.70;89.20
62555;DHT22;48610;52.144;8.624;2023-07-20T14:40:37;21.60;89.90
62555;DHT22;48610;52.144;8.624;2023-07-20T14:43:38;21.40;90.20
62555;DHT22;48610;52.144;8.624;2023-07-20T14:46:39;21.60;90.60
62555;DHT22;48610;52.144;8.624;2023-07-20T14:49:40;21.80;90.80
62555;DHT22;48610;52.144;8.624;2023-07-20T14:52:40;22.30;91.00
62555;DHT22;48610;52.144;8.624;2023-07-20T14:55:42;22.60;90.30
62555;DHT22;48610;52.144;8.624;2023-07-20T14:58:42;22.60;90.00
62555;DHT22;48610;52.144;8.624;2023-07-20T15:01:43;22.20;89.60
62555;DHT22;48610;52.144;8.624;2023-07-20T15:04:49;22.20;90.20
62555;DHT22;48610;52.144;8.624;2023-07-20T15:07:51;22.20;89.30
62555;DHT22;48610;52.144;8.624;2023-07-20T15:10:51;22.00;89.20
62555;DHT22;48610;52.144;8.624;2023-07-20T15:13:52;22.00;90.20
62555;DHT22;48610;52.144;8.624;2023-07-20T15:16:53;22.00;87.90
62555;DHT22;48610;52.144;8.624;2023-07-20T15:19:53;22.00;88.20
62555;DHT22;48610;52.144;8.624;2023-07-20T15:22:54;22.20;90.30
62555;DHT22;48610;52.144;8.624;2023-07-20T15:25:54;22.30;87.70
62555;DHT22;48610;52.144;8.624;2023-07-20T15:28:55;21.90;88.00
62555;DHT22;48610;52.144;8.624;2023-07-20T15:31:56;21.80;88.50
62555;DHT22;48610;52.144;8.624;2023-07-20T15:34:56;21.80;87.30
62555;DHT22;48610;52.144;8.624;2023-07-20T15:37:57;21.60;88.30
62555;DHT22;48610;52.144;8.624;2023-07-20T15:40:59;21.50;89.90
62555;DHT22;48610;52.144;8.624;2023-07-20T15:44:01;21.50;90.10
62555;DHT22;48610;52.144;8.624;2023-07-20T15:47:02;21.60;90.20
62555;DHT22;48610;52.144;8.624;2023-07-20T15:50:03;21.60;89.30
62555;DHT22;48610;52.144;8.624;2023-07-20T15:53:04;22.00;89.20
62555;DHT22;48610;52.144;8.624;2023-07-20T15:56:04;21.90;87.20
62555;DHT22;48610;52.144;8.624;2023-07-20T15:59:08;21.80;86.80
62555;DHT22;48610;52.144;8.624;2023-07-20T16:02:10;21.80;86.10
62555;DHT22;48610;52.144;8.624;2023-07-20T16:05:11;21.80;87.90
62555;DHT22;48610;52.144;8.624;2023-07-20T16:08:11;22.00;87.60
62555;DHT22;48610;52.144;8.624;2023-07-20T16:11:12;21.90;85.60
62555;DHT22;48610;52.144;8.624;2023-07-20T16:14:13;21.80;86.80
62555;DHT22;48610;52.144;8.624;2023-07-20T16:17:13;21.80;86.40
62555;DHT22;48610;52.144;8.624;2023-07-20T16:20:14;22.10;87.00
62555;DHT22;48610;52.144;8.624;2023-07-20T16:23:15;22.00;82.70
62555;DHT22;48610;52.144;8.624;2023-07-20T16:26:16;21.90;84.10
62555;DHT22;48610;52.144;8.624;2023-07-20T16:29:16;22.10;83.50
62555;DHT22;48610;52.144;8.624;2023-07-20T16:32:17;22.20;82.20
62555;DHT22;48610;52.144;8.624;2023-07-20T16:35:18;22.30;79.80
62555;DHT22;48610;52.144;8.624;2023-07-20T16:38:18;22.00;80.50
62555;DHT22;48610;52.144;8.624;2023-07-20T16:41:19;21.90;82.60
62555;DHT22;48610;52.144;8.624;2023-07-20T16:44:20;21.80;80.60
62555;DHT22;48610;52.144;8.624;2023-07-20T16:47:20;21.60;80.60
62555;DHT22;48610;52.144;8.624;2023-07-20T16:50:22;21.50;81.00
62555;DHT22;48610;52.144;8.624;2023-07-20T16:53:23;21.40;80.40
62555;DHT22;48610;52.144;8.624;2023-07-20T16:56:24;21.50;82.00
62555;DHT22;48610;52.144;8.624;2023-07-20T16:59:25;21.60;81.90
62555;DHT22;48610;52.144;8.624;2023-07-20T17:02:26;21.70;81.60
62555;DHT22;48610;52.144;8.624;2023-07-20T17:05:26;21.80;81.20
62555;DHT22;48610;52.144;8.624;2023-07-20T17:08:27;21.70;80.70
62555;DHT22;48610;52.144;8.624;2023-07-20T17:11:28;21.50;81.90
62555;DHT22;48610;52.144;8.624;2023-07-20T17:14:28;21.50;82.50
62555;DHT22;48610;52.144;8.624;2023-07-20T17:17:29;21.50;82.90
62555;DHT22;48610;52.144;8.624;2023-07-20T17:20:29;21.50;82.20
62555;DHT22;48610;52.144;8.624;2023-07-20T17:23:30;21.40;81.50
62555;DHT22;48610;52.144;8.624;2023-07-20T17:26:32;21.20;82.40
62555;DHT22;48610;52.144;8.624;2023-07-20T17:29:34;21.00;83.20
62555;DHT22;48610;52.144;8.624;2023-07-20T17:32:35;21.20;81.90
62555;DHT22;48610;52.144;8.624;2023-07-20T17:35:36;21.30;82.20
62555;DHT22;48610;52.144;8.624;2023-07-20T17:38:36;21.20;82.30
62555;DHT22;48610;52.144;8.624;2023-07-20T17:41:37;21.40;81.90
62555;DHT22;48610;52.144;8.624;2023-07-20T17:44:38;21.40;82.50
62555;DHT22;48610;52.144;8.624;2023-07-20T17:47:39;21.40;82.30
62555;DHT22;48610;52.144;8.624;2023-07-20T17:50:39;21.50;82.00
62555;DHT22;48610;52.144;8.624;2023-07-20T17:53:40;21.60;80.70
62555;DHT22;48610;52.144;8.624;2023-07-20T17:56:41;21.40;81.50
62555;DHT22;48610;52.144;8.624;2023-07-20T17:59:41;21.00;83.10
62555;DHT22;48610;52.144;8.624;2023-07-20T18:02:43;20.90;84.00
62555;DHT22;48610;52.144;8.624;2023-07-20T18:05:43;20.80;84.20
62555;DHT22;48610;52.144;8.624;2023-07-20T18:08:44;20.80;84.70
62555;DHT22;48610;52.144;8.624;2023-07-20T18:11:45;20.50;85.00
62555;DHT22;48610;52.144;8.624;2023-07-20T18:14:46;20.60;85.60
62555;DHT22;48610;52.144;8.624;2023-07-20T18:17:47;20.50;86.00
62555;DHT22;48610;52.144;8.624;2023-07-20T18:20:47;20.50;85.10
62555;DHT22;48610;52.144;8.624;2023-07-20T18:23:48;20.50;86.20
62555;DHT22;48610;52.144;8.624;2023-07-20T18:26:51;20.40;86.50
62555;DHT22;48610;52.144;8.624;2023-07-20T18:29:52;20.40;87.40
62555;DHT22;48610;52.144;8.624;2023-07-20T18:32:52;20.40;88.10
62555;DHT22;48610;52.144;8.624;2023-07-20T18:35:53;20.50;87.90
62555;DHT22;48610;52.144;8.624;2023-07-20T18:38:54;20.30;87.80
62555;DHT22;48610;52.144;8.624;2023-07-20T18:41:56;20.30;89.00
62555;DHT22;48610;52.144;8.624;2023-07-20T18:44:57;20.20;90.40
62555;DHT22;48610;52.144;8.624;2023-07-20T18:47:58;19.90;90.60
62555;DHT22;48610;52.144;8.624;2023-07-20T18:50:58;19.80;91.40
62555;DHT22;48610;52.144;8.624;2023-07-20T18:53:59;19.80;91.40
62555;DHT22;48610;52.144;8.624;2023-07-20T18:57:00;19.80;91.90
62555;DHT22;48610;52.144;8.624;2023-07-20T19:00:01;19.90;91.80
62555;DHT22;48610;52.144;8.624;2023-07-20T19:03:01;19.80;92.50
62555;DHT22;48610;52.144;8.624;2023-07-20T19:06:02;19.70;92.50
62555;DHT22;48610;52.144;8.624;2023-07-20T19:09:03;19.40;93.10
62555;DHT22;48610;52.144;8.624;2023-07-20T19:12:05;19.40;93.80
62555;DHT22;48610;52.144;8.624;2023-07-20T19:15:07;19.10;94.00
62555;DHT22;48610;52.144;8.624;2023-07-20T19:18:09;18.90;94.60
62555;DHT22;48610;52.144;8.624;2023-07-20T19:21:09;19.00;93.80
62555;DHT22;48610;52.144;8.624;2023-07-20T19:24:10;19.00;94.10
62555;DHT22;48610;52.144;8.624;2023-07-20T19:27:10;18.80;94.50